createdAt,value
2023-02-08T00:00:39.071Z,18.90
2023-02-08T00:01:38.693Z,18.00
2023-02-08T00:02:38.707Z,18.40
2023-02-08T00:03:38.684Z,18.00
2023-02-08T00:04:38.647Z,17.40
2023-02-08T00:05:38.661Z,18.20
2023-02-08T00:06:38.617Z,18.30
2023-02-08T00:07:38.610Z,17.80
2023-02-08T00:08:38.606Z,18.60
2023-02-08T00:09:38.638Z,18.80
2023-02-08T00:10:39.045Z,17.50
2023-02-08T00:11:38.549Z,17.80
2023-02-08T00:12:38.553Z,18.20
2023-02-08T00:13:40.961Z,17.90
2023-02-08T00:14:38.515Z,18.30
2023-02-08T00:15:38.537Z,17.10
2023-02-08T00:16:38.472Z,17.00
2023-02-08T00:17:38.481Z,17.70
2023-02-08T00:18:38.479Z,17.80
2023-02-08T00:19:38.464Z,17.70
2023-02-08T00:20:38.671Z,18.50
2023-02-08T00:21:38.425Z,18.50
2023-02-08T00:22:38.397Z,19.70
2023-02-08T00:23:38.455Z,18.50
2023-02-08T00:24:38.369Z,19.60
2023-02-08T00:25:39.497Z,19.50
2023-02-08T00:26:38.351Z,19.30
2023-02-08T00:27:38.361Z,19.40
2023-02-08T00:28:38.307Z,18.70
2023-02-08T00:29:38.321Z,17.70
2023-02-08T00:30:38.518Z,18.50
2023-02-08T00:31:38.532Z,18.70
2023-02-08T00:32:38.258Z,20.00
2023-02-08T00:33:38.259Z,19.20
2023-02-08T00:34:38.244Z,19.80
2023-02-08T00:35:38.230Z,21.00
2023-02-08T00:36:38.227Z,20.10
2023-02-08T00:37:40.239Z,19.80
2023-02-08T00:38:38.185Z,19.60
2023-02-08T00:39:38.205Z,19.40
2023-02-08T00:40:38.627Z,18.50
2023-02-08T00:41:38.142Z,18.30
2023-02-08T00:43:59.916Z,17.50
2023-02-08T00:44:52.050Z,18.30
2023-02-08T00:48:51.071Z,17.90
2023-02-08T00:51:42.923Z,18.20
2023-02-08T00:52:43.907Z,17.70
2023-02-08T00:53:43.937Z,17.80
2023-02-08T00:54:43.892Z,18.70
2023-02-08T00:55:43.873Z,18.30
2023-02-08T00:56:45.928Z,18.10
2023-02-08T00:57:43.875Z,18.00
2023-02-08T00:58:45.044Z,18.30
2023-02-08T00:59:43.824Z,18.20
2023-02-08T01:00:43.858Z,18.50
2023-02-08T01:01:43.836Z,17.90
2023-02-08T01:02:43.773Z,16.90
2023-02-08T01:03:45.901Z,17.60
2023-02-08T01:04:43.757Z,17.30
2023-02-08T01:05:43.748Z,17.50
2023-02-08T01:06:43.720Z,18.10
2023-02-08T01:07:43.731Z,19.40
2023-02-08T01:08:43.701Z,17.90
2023-02-08T01:09:44.791Z,19.80
2023-02-08T01:10:43.678Z,19.10
2023-02-08T01:11:43.669Z,18.50
2023-02-08T01:12:43.636Z,20.00
2023-02-08T01:13:43.632Z,19.20
2023-02-08T01:14:43.638Z,17.90
2023-02-08T01:15:43.624Z,18.10
2023-02-08T01:16:43.644Z,18.10
2023-02-08T01:17:43.574Z,19.10
2023-02-08T01:18:43.601Z,19.00
2023-02-08T01:19:43.575Z,18.10
2023-02-08T01:20:43.535Z,17.70
2023-02-08T01:21:43.532Z,19.50
2023-02-08T01:22:43.504Z,18.80
2023-02-08T01:23:43.495Z,19.00
2023-02-08T01:24:43.538Z,20.40
2023-02-08T01:25:43.474Z,19.80
2023-02-08T01:26:43.545Z,19.40
2023-02-08T01:27:43.460Z,19.30
2023-02-08T01:28:43.441Z,19.10
2023-02-08T01:29:43.457Z,19.70
2023-02-08T01:30:43.721Z,19.50
2023-02-08T01:31:43.440Z,19.20
2023-02-08T01:32:43.373Z,18.20
2023-02-08T01:33:43.356Z,19.30
2023-02-08T01:34:44.342Z,19.30
2023-02-08T01:35:43.339Z,19.40
2023-02-08T01:36:43.326Z,20.60
2023-02-08T01:37:44.322Z,19.80
2023-02-08T01:38:43.295Z,20.60
2023-02-08T01:39:43.303Z,21.00
2023-02-08T01:40:43.287Z,20.30
2023-02-08T01:41:43.252Z,21.30
2023-02-08T01:42:43.286Z,20.30
2023-02-08T01:43:43.235Z,20.80
2023-02-08T01:44:43.300Z,20.30
2023-02-08T01:45:43.214Z,20.90
2023-02-08T01:46:43.191Z,19.80
2023-02-08T01:47:43.171Z,19.60
2023-02-08T01:48:43.187Z,19.40
2023-02-08T01:49:43.178Z,20.20
2023-02-08T01:50:43.129Z,19.70
2023-02-08T01:51:43.138Z,20.50
2023-02-08T01:52:43.101Z,21.20
2023-02-08T01:53:43.147Z,21.30
2023-02-08T01:54:43.128Z,20.70
2023-02-08T01:56:04.132Z,19.90
2023-02-08T01:56:43.055Z,19.70
2023-02-08T01:57:43.032Z,19.80
2023-02-08T01:58:43.035Z,20.80
2023-02-08T01:59:43.039Z,20.40
2023-02-08T02:00:43.248Z,19.90
2023-02-08T02:01:42.986Z,20.00
2023-02-08T02:02:42.973Z,20.30
2023-02-08T02:03:42.959Z,20.80
2023-02-08T02:04:43.025Z,20.40
2023-02-08T02:05:42.932Z,20.70
2023-02-08T02:06:42.912Z,20.50
2023-02-08T02:07:42.933Z,19.90
2023-02-08T02:08:42.910Z,21.10
2023-02-08T02:14:41.945Z,21.30
2023-02-08T02:15:42.959Z,21.40
2023-02-08T02:16:42.956Z,21.10
2023-02-08T02:17:42.917Z,20.50
2023-02-08T02:18:42.893Z,19.80
2023-02-08T02:19:42.880Z,20.70
2023-02-08T02:20:43.310Z,20.10
2023-02-08T02:21:42.849Z,20.70
2023-02-08T02:22:42.876Z,21.30
2023-02-08T02:23:42.820Z,20.50
2023-02-08T02:24:42.801Z,20.80
2023-02-08T02:25:42.836Z,21.50
2023-02-08T02:26:42.783Z,20.20
2023-02-08T02:27:42.804Z,20.10
2023-02-08T02:28:42.747Z,20.50
2023-02-08T02:29:43.835Z,21.30
2023-02-08T02:30:43.134Z,21.60
2023-02-08T02:31:42.827Z,21.40
2023-02-08T02:32:42.715Z,22.00
2023-02-08T02:33:42.683Z,20.90
2023-02-08T02:34:42.678Z,20.70
2023-02-08T02:35:42.687Z,21.30
2023-02-08T02:36:42.649Z,20.80
2023-02-08T02:37:42.656Z,22.20
2023-02-08T02:38:42.629Z,19.90
2023-02-08T02:39:42.637Z,21.80
2023-02-08T02:40:42.852Z,23.40
2023-02-08T02:41:42.611Z,21.30
2023-02-08T02:42:42.557Z,21.80
2023-02-08T02:43:42.584Z,23.20
2023-02-08T02:44:42.538Z,22.00
2023-02-08T02:45:42.590Z,23.00
2023-02-08T02:46:42.514Z,20.90
2023-02-08T02:47:42.507Z,23.00
2023-02-08T02:48:42.509Z,22.20
2023-02-08T02:49:42.541Z,23.00
2023-02-08T02:50:42.510Z,21.80
2023-02-08T02:51:42.492Z,22.90
2023-02-08T02:52:42.450Z,23.30
2023-02-08T02:53:42.437Z,23.00
2023-02-08T02:54:44.643Z,22.20
2023-02-08T02:55:42.420Z,22.50
2023-02-08T02:56:42.380Z,22.70
2023-02-08T02:57:42.377Z,22.30
2023-02-08T02:58:42.362Z,22.30
2023-02-08T02:59:42.348Z,22.50
2023-02-08T03:00:42.500Z,21.90
2023-02-08T03:01:42.350Z,22.20
2023-02-08T03:02:42.311Z,22.90
2023-02-08T03:03:42.394Z,22.60
2023-02-08T03:04:42.326Z,22.70
2023-02-08T03:05:42.280Z,21.50
2023-02-08T03:06:42.294Z,21.10
2023-02-08T03:07:42.240Z,20.50
2023-02-08T03:08:42.229Z,20.80
2023-02-08T03:09:42.211Z,22.00
2023-02-08T03:10:42.334Z,20.80
2023-02-08T03:11:42.222Z,21.30
2023-02-08T03:12:42.227Z,21.10
2023-02-08T03:13:42.197Z,21.20
2023-02-08T03:14:42.150Z,20.80
2023-02-08T03:15:42.203Z,20.90
2023-02-08T03:16:42.169Z,22.10
2023-02-08T03:24:21.234Z,21.50
2023-02-08T03:25:22.231Z,21.60
2023-02-08T03:26:22.205Z,22.30
2023-02-08T03:27:22.167Z,22.00
2023-02-08T03:28:22.237Z,22.50
2023-02-08T03:29:22.166Z,23.00
2023-02-08T03:30:22.182Z,22.00
2023-02-08T03:31:22.362Z,21.20
2023-02-08T03:32:22.109Z,21.70
2023-02-08T03:33:22.080Z,21.80
2023-02-08T03:34:22.086Z,21.20
2023-02-08T03:35:22.076Z,21.80
2023-02-08T03:36:22.082Z,21.10
2023-02-08T03:37:22.052Z,21.20
2023-02-08T03:38:22.043Z,21.20
2023-02-08T03:39:22.020Z,22.90
2023-02-08T03:40:22.024Z,21.10
2023-02-08T03:41:22.019Z,21.50
2023-02-08T03:42:22.027Z,20.90
2023-02-08T03:43:21.965Z,21.60
2023-02-08T03:44:21.998Z,21.10
2023-02-08T03:45:21.954Z,21.80
2023-02-08T03:46:21.982Z,21.00
2023-02-08T03:47:21.911Z,22.10
2023-02-08T03:48:21.921Z,21.80
2023-02-08T03:49:21.946Z,22.70
2023-02-08T03:50:21.893Z,22.00
2023-02-08T03:51:21.973Z,22.90
2023-02-08T03:52:21.854Z,23.70
2023-02-08T03:53:21.830Z,23.40
2023-02-08T03:54:21.828Z,22.80
2023-02-08T03:55:21.848Z,22.40
2023-02-08T03:56:21.811Z,23.50
2023-02-08T03:57:21.792Z,23.50
2023-02-08T03:58:21.776Z,23.60
2023-02-08T03:59:21.773Z,22.50
2023-02-08T04:00:21.755Z,22.00
2023-02-08T04:01:21.788Z,22.00
2023-02-08T04:02:21.791Z,23.20
2023-02-08T06:03:56.378Z,24.60
2023-02-08T06:04:57.321Z,25.60
2023-02-08T06:05:57.324Z,25.90
2023-02-08T06:06:57.291Z,25.20
2023-02-08T06:07:57.348Z,25.30
2023-02-08T06:08:57.267Z,24.50
2023-02-08T06:09:57.278Z,24.70
2023-02-08T06:10:57.246Z,23.70
2023-02-08T06:11:57.264Z,23.70
2023-02-08T06:12:57.213Z,25.10
2023-02-08T06:13:57.189Z,24.20
2023-02-08T06:14:57.262Z,23.30
2023-02-08T06:15:57.200Z,25.40
2023-02-08T06:16:57.178Z,24.60
2023-02-08T06:17:57.281Z,24.70
2023-02-08T06:18:57.237Z,25.20
2023-02-08T06:19:57.182Z,25.60
2023-02-08T06:20:57.123Z,25.30
2023-02-08T06:21:57.084Z,25.10
2023-02-08T06:22:57.077Z,25.10
2023-02-08T06:23:57.063Z,25.40
2023-02-08T06:24:57.158Z,25.90
2023-02-08T06:25:57.040Z,25.70
2023-02-08T06:26:57.086Z,24.90
2023-02-08T06:27:57.599Z,26.30
2023-02-08T06:28:57.103Z,27.30
2023-02-08T06:29:57.014Z,27.60
2023-02-08T06:30:57.003Z,29.60
2023-02-08T06:31:57.066Z,29.60
2023-02-08T06:32:57.033Z,29.80
2023-02-08T06:33:56.981Z,33.00
2023-02-08T06:34:56.917Z,31.30
2023-02-08T06:35:56.991Z,32.40
2023-02-08T06:36:56.951Z,40.60
2023-02-08T06:37:56.895Z,49.20
2023-02-08T06:38:57.020Z,47.80
2023-02-08T06:39:56.867Z,44.50
2023-02-08T06:40:56.879Z,40.60
2023-02-08T06:41:56.818Z,38.90
2023-02-08T06:42:56.825Z,37.00
2023-02-08T06:43:56.839Z,34.60
2023-02-08T06:44:57.119Z,38.50
2023-02-08T06:45:56.857Z,38.20
2023-02-08T06:46:56.797Z,38.60
2023-02-08T06:47:56.868Z,40.20
2023-02-08T06:48:56.907Z,39.70
2023-02-08T06:49:56.738Z,36.00
2023-02-08T06:50:56.747Z,36.10
2023-02-08T06:51:56.810Z,34.90
2023-02-08T06:52:56.688Z,33.90
2023-02-08T06:53:56.709Z,33.00
2023-02-08T06:54:56.671Z,31.80
2023-02-08T06:55:56.675Z,30.60
2023-02-08T06:56:56.786Z,29.10
2023-02-08T06:57:56.614Z,30.20
2023-02-08T06:58:56.622Z,30.30
2023-02-08T06:59:56.605Z,30.00
2023-02-08T07:00:56.594Z,30.40
2023-02-08T07:01:56.576Z,32.80
2023-02-08T07:02:56.557Z,33.60
2023-02-08T07:03:56.577Z,31.60
2023-02-08T07:04:56.525Z,31.90
2023-02-08T07:06:04.820Z,32.30
2023-02-08T07:06:56.519Z,30.80
2023-02-08T07:07:56.539Z,32.00
2023-02-08T07:08:56.503Z,33.80
2023-02-08T07:09:56.462Z,36.90
2023-02-08T07:10:56.509Z,36.30
2023-02-08T07:11:56.423Z,43.70
2023-02-08T07:12:56.469Z,45.20
2023-02-08T07:13:56.493Z,40.80
2023-02-08T07:14:56.393Z,38.80
2023-02-08T07:15:56.438Z,35.70
2023-02-08T07:16:56.576Z,35.80
2023-02-08T07:17:56.373Z,33.60
2023-02-08T07:18:56.385Z,34.10
2023-02-08T07:19:56.335Z,35.30
2023-02-08T07:20:56.304Z,35.10
2023-02-08T07:21:56.318Z,33.00
2023-02-08T07:22:56.290Z,33.80
2023-02-08T07:23:56.325Z,34.00
2023-02-08T07:24:56.278Z,28.60
2023-02-08T07:25:56.285Z,28.00
2023-02-08T07:26:56.257Z,26.60
2023-02-08T07:27:56.246Z,26.40
2023-02-08T07:28:56.275Z,26.40
2023-02-08T07:29:56.403Z,26.10
2023-02-08T07:30:56.251Z,26.30
2023-02-08T07:31:56.246Z,26.70
2023-02-08T07:32:56.253Z,26.80
2023-02-08T07:33:56.191Z,26.60
2023-02-08T07:34:56.131Z,26.60
2023-02-08T07:35:56.113Z,27.10
2023-02-08T07:36:56.165Z,26.00
2023-02-08T07:37:56.093Z,26.00
2023-02-08T07:38:56.102Z,28.00
2023-02-08T07:39:56.282Z,27.40
2023-02-08T07:40:56.067Z,27.40
2023-02-08T07:41:56.049Z,28.90
2023-02-08T07:42:56.026Z,27.10
2023-02-08T07:43:56.028Z,27.00
2023-02-08T07:44:56.012Z,26.00
2023-02-08T07:45:56.025Z,25.80
2023-02-08T07:46:56.138Z,26.30
2023-02-08T07:47:55.960Z,26.20
2023-02-08T07:48:55.958Z,26.70
2023-02-08T07:49:55.951Z,26.30
2023-02-08T07:50:55.954Z,25.80
2023-02-08T07:51:55.985Z,26.70
2023-02-08T07:52:55.900Z,25.90
2023-02-08T07:53:55.928Z,25.90
2023-02-08T07:54:55.910Z,26.40
2023-02-08T07:55:55.889Z,27.40
2023-02-08T07:56:55.872Z,25.10
2023-02-08T07:57:55.918Z,23.80
2023-02-08T07:58:55.834Z,23.50
2023-02-08T07:59:55.851Z,22.90
2023-02-08T08:00:55.813Z,23.40
2023-02-08T08:01:58.106Z,23.70
2023-02-08T08:02:55.812Z,23.80
2023-02-08T08:03:55.884Z,24.00
2023-02-08T08:04:55.775Z,22.70
2023-02-08T08:05:55.756Z,22.30
2023-02-08T08:06:55.847Z,23.30
2023-02-08T08:07:55.774Z,24.10
2023-02-08T08:08:55.700Z,21.60
2023-02-08T08:09:55.751Z,22.30
2023-02-08T08:10:56.474Z,21.40
2023-02-08T08:11:55.883Z,22.30
2023-02-08T08:12:55.657Z,22.80
2023-02-08T08:13:55.675Z,21.70
2023-02-08T08:14:55.633Z,21.10
2023-02-08T08:15:55.626Z,21.30
2023-02-08T08:16:55.623Z,21.80
2023-02-08T08:17:55.616Z,20.00
2023-02-08T08:18:55.580Z,21.10
2023-02-08T08:19:55.566Z,21.00
2023-02-08T08:20:55.706Z,21.40
2023-02-08T08:21:55.685Z,19.90
2023-02-08T08:22:55.511Z,20.40
2023-02-08T08:23:55.511Z,20.40
2023-02-08T08:24:55.506Z,20.00
2023-02-08T08:25:57.613Z,20.00
2023-02-08T08:26:55.614Z,19.80
2023-02-08T08:27:55.489Z,19.40
2023-02-08T08:28:55.537Z,18.50
2023-02-08T08:29:55.489Z,18.60
2023-02-08T08:30:55.537Z,18.40
2023-02-08T08:31:55.454Z,18.20
2023-02-08T08:32:55.427Z,17.90
2023-02-08T08:33:55.426Z,18.50
2023-02-08T08:34:55.463Z,17.30
2023-02-08T08:35:55.362Z,17.30
2023-02-08T08:36:55.478Z,17.70
2023-02-08T08:37:55.337Z,17.40
2023-02-08T08:38:55.297Z,17.70
2023-02-08T08:39:55.310Z,17.10
2023-02-08T08:40:55.305Z,17.90
2023-02-08T08:41:56.510Z,17.60
2023-02-08T08:42:55.268Z,17.50
2023-02-08T08:43:55.284Z,17.60
2023-02-08T08:44:55.241Z,17.70
2023-02-08T08:45:55.243Z,16.60
2023-02-08T08:47:17.445Z,16.20
2023-02-08T08:47:55.186Z,16.20
2023-02-08T08:49:16.272Z,17.00
2023-02-08T08:49:55.260Z,16.10
2023-02-08T08:50:55.182Z,17.50
2023-02-08T08:51:57.429Z,16.90
2023-02-08T08:52:55.145Z,15.90
2023-02-08T08:53:55.125Z,14.70
2023-02-08T08:54:55.119Z,15.80
2023-02-08T08:55:55.148Z,15.10
2023-02-08T08:58:19.803Z,15.70
2023-02-08T08:59:11.951Z,15.50
2023-02-08T09:00:11.940Z,15.00
2023-02-08T09:01:11.896Z,14.90
2023-02-08T09:05:55.890Z,13.70
2023-02-08T09:06:55.779Z,13.40
2023-02-08T09:07:55.773Z,13.70
2023-02-08T09:08:55.748Z,14.20
2023-02-08T09:10:04.711Z,13.40
2023-02-08T09:10:55.723Z,13.00
2023-02-08T09:11:55.799Z,14.30
2023-02-08T09:12:55.717Z,12.70
2023-02-08T09:13:55.676Z,12.40
2023-02-08T09:16:45.989Z,12.90
2023-02-08T09:17:46.982Z,12.70
2023-02-08T09:18:46.992Z,12.00
2023-02-08T09:19:46.937Z,11.30
2023-02-08T09:20:47.061Z,11.80
2023-02-08T09:21:46.946Z,10.80
2023-02-08T09:22:46.881Z,11.70
2023-02-08T09:23:46.880Z,11.10
2023-02-08T09:24:46.876Z,11.30
2023-02-08T09:25:49.073Z,10.90
2023-02-08T09:26:46.824Z,11.30
2023-02-08T09:27:46.877Z,11.30
2023-02-08T09:28:46.908Z,10.50
2023-02-08T09:29:46.831Z,10.60
2023-02-08T09:30:46.818Z,10.30
2023-02-08T09:31:46.984Z,9.40
2023-02-08T09:32:46.780Z,10.50
2023-02-08T09:33:46.826Z,10.00
2023-02-08T09:34:46.735Z,10.00
2023-02-08T09:35:48.238Z,10.10
2023-02-08T09:36:46.730Z,9.90
2023-02-08T09:37:46.694Z,10.00
2023-02-08T09:38:46.696Z,9.40
2023-02-08T09:39:46.724Z,9.70
2023-02-08T09:40:46.661Z,10.30
2023-02-08T09:41:46.713Z,9.80
2023-02-08T09:42:46.677Z,9.40
2023-02-08T09:43:46.694Z,9.90
2023-02-08T09:44:46.623Z,9.70
2023-02-08T09:45:59.086Z,9.10
2023-02-08T09:46:46.635Z,8.70
2023-02-08T09:47:46.576Z,8.20
2023-02-08T09:48:46.564Z,8.90
2023-02-08T09:49:46.555Z,9.10
2023-02-08T09:50:46.524Z,8.20
2023-02-08T09:51:46.513Z,7.80
2023-02-08T09:52:46.508Z,8.80
2023-02-08T09:53:46.517Z,8.30
2023-02-08T09:54:46.487Z,8.50
2023-02-08T09:55:46.473Z,8.40
2023-02-08T09:56:46.438Z,7.90
2023-02-08T09:57:46.438Z,8.60
2023-02-08T09:58:46.425Z,8.80
2023-02-08T09:59:46.415Z,8.00
2023-02-08T10:00:46.570Z,8.00
2023-02-08T10:01:46.504Z,7.30
2023-02-08T10:02:46.355Z,7.70
2023-02-08T10:03:46.373Z,7.50
2023-02-08T10:04:46.334Z,8.20
2023-02-08T10:05:46.341Z,8.20
2023-02-08T10:06:47.658Z,7.70
2023-02-08T10:07:46.304Z,8.00
2023-02-08T10:08:46.300Z,7.90
2023-02-08T10:09:46.273Z,7.70
2023-02-08T10:10:46.262Z,8.00
2023-02-08T10:11:46.255Z,7.60
2023-02-08T10:12:46.228Z,7.30
2023-02-08T10:13:46.226Z,7.90
2023-02-08T10:14:46.240Z,8.00
2023-02-08T10:15:46.234Z,8.20
2023-02-08T10:16:46.189Z,7.60
2023-02-08T10:17:46.208Z,7.20
2023-02-08T10:18:46.194Z,7.50
2023-02-08T10:19:46.224Z,8.00
2023-02-08T10:20:46.225Z,7.60
2023-02-08T10:21:46.116Z,7.80
2023-02-08T10:22:46.101Z,8.30
2023-02-08T10:23:46.153Z,7.70
2023-02-08T10:24:46.117Z,8.00
2023-02-08T10:25:46.100Z,8.20
2023-02-08T10:26:46.036Z,7.50
2023-02-08T10:27:46.064Z,8.10
2023-02-08T10:28:46.024Z,8.70
2023-02-08T10:29:46.067Z,7.70
2023-02-08T10:30:46.484Z,7.90
2023-02-08T10:31:46.125Z,8.40
2023-02-08T10:32:45.993Z,7.60
2023-02-08T10:33:45.956Z,7.90
2023-02-08T10:34:45.996Z,8.00
2023-02-08T10:35:46.106Z,8.10
2023-02-08T10:36:45.957Z,7.20
2023-02-08T10:37:45.941Z,7.10
2023-02-08T10:38:47.169Z,7.60
2023-02-08T10:39:45.885Z,7.80
2023-02-08T10:40:45.937Z,7.00
2023-02-08T10:41:45.854Z,7.80
2023-02-08T10:42:45.855Z,7.50
2023-02-08T10:43:45.828Z,7.80
2023-02-08T10:44:48.147Z,7.70
2023-02-08T10:45:45.969Z,7.20
2023-02-08T10:46:45.780Z,7.60
2023-02-08T10:47:45.791Z,6.60
2023-02-08T10:48:45.761Z,6.90
2023-02-08T10:49:45.755Z,6.20
2023-02-08T10:50:45.715Z,6.20
2023-02-08T10:51:45.736Z,6.00
2023-02-08T10:52:45.731Z,6.50
2023-02-08T10:53:45.722Z,6.50
2023-02-08T10:54:45.700Z,6.50
2023-02-08T10:55:46.184Z,6.30
2023-02-08T10:56:45.645Z,6.40
2023-02-08T10:57:45.671Z,6.70
2023-02-08T10:58:45.661Z,6.20
2023-02-08T10:59:45.633Z,5.90
2023-02-08T11:00:45.646Z,6.00
2023-02-08T11:01:45.702Z,6.40
2023-02-08T11:02:45.582Z,6.50
2023-02-08T11:03:45.579Z,6.30
2023-02-08T11:04:45.610Z,7.60
2023-02-08T11:05:45.682Z,6.90
2023-02-08T11:06:45.530Z,6.40
2023-02-08T11:07:45.544Z,6.60
2023-02-08T11:08:45.503Z,6.70
2023-02-08T11:09:45.489Z,7.20
2023-02-08T11:10:45.557Z,7.20
2023-02-08T11:11:45.512Z,7.10
2023-02-08T11:12:45.449Z,7.00
2023-02-08T11:13:45.453Z,7.00
2023-02-08T11:14:47.419Z,6.90
2023-02-08T11:15:45.698Z,6.40
2023-02-08T11:16:45.451Z,5.50
2023-02-08T11:17:45.381Z,5.80
2023-02-08T11:18:45.354Z,6.20
2023-02-08T11:19:45.395Z,5.60
2023-02-08T11:20:45.333Z,6.10
2023-02-08T11:21:45.402Z,5.50
2023-02-08T11:22:45.297Z,6.20
2023-02-08T11:23:45.311Z,6.00
2023-02-08T11:24:45.277Z,5.90
2023-02-08T11:25:45.279Z,5.60
2023-02-08T11:26:45.290Z,5.90
2023-02-08T11:27:45.254Z,5.40
2023-02-08T11:28:45.229Z,5.50
2023-02-08T11:29:45.222Z,5.80
2023-02-08T11:30:45.239Z,4.80
2023-02-08T11:31:45.229Z,5.30
2023-02-08T11:32:45.183Z,5.10
2023-02-08T11:33:45.185Z,5.60
2023-02-08T11:34:45.156Z,4.80
2023-02-08T11:35:45.410Z,5.00
2023-02-08T11:36:45.143Z,4.50
2023-02-08T11:37:45.118Z,4.30
2023-02-08T11:38:45.097Z,4.70
2023-02-08T11:39:45.108Z,4.60
2023-02-08T11:40:45.059Z,4.70
2023-02-08T11:41:45.074Z,4.60
2023-02-08T11:42:45.047Z,4.80
2023-02-08T11:43:45.035Z,5.00
2023-02-08T11:44:45.020Z,5.00
2023-02-08T11:45:45.316Z,4.80
2023-02-08T11:46:44.995Z,4.50
2023-02-08T11:47:45.031Z,4.60
2023-02-08T11:48:44.988Z,4.50
2023-02-08T11:49:44.963Z,4.90
2023-02-08T11:50:45.069Z,5.10
2023-02-08T11:59:14.162Z,5.00
2023-02-08T12:00:15.076Z,4.40
2023-02-08T12:01:15.044Z,4.00
2023-02-08T12:02:15.083Z,3.70
2023-02-08T12:03:15.087Z,3.60
2023-02-08T12:04:14.999Z,3.50
2023-02-08T12:05:14.980Z,4.20
2023-02-08T12:06:14.993Z,3.80
2023-02-08T12:07:14.976Z,4.00
2023-02-08T12:08:14.943Z,4.50
2023-02-08T12:09:14.957Z,4.50
2023-02-08T12:10:14.913Z,4.30
2023-02-08T12:11:13.898Z,4.10
2023-02-08T12:12:14.917Z,4.10
2023-02-08T12:13:14.882Z,4.10
2023-02-08T12:14:14.871Z,4.10
2023-02-08T12:15:14.858Z,4.10
2023-02-08T12:16:14.929Z,4.40
2023-02-08T12:17:14.838Z,4.30
2023-02-08T12:18:14.807Z,4.10
2023-02-08T12:19:14.834Z,3.90
2023-02-08T12:20:14.868Z,4.30
2023-02-08T12:21:15.605Z,4.40
2023-02-08T12:22:14.785Z,3.80
2023-02-08T12:23:14.756Z,4.20
2023-02-08T12:24:36.802Z,3.40
2023-02-08T12:25:14.714Z,3.60
2023-02-08T12:26:14.708Z,3.60
2023-02-08T12:27:17.192Z,3.80
2023-02-08T12:28:17.027Z,3.40
2023-02-08T12:29:14.672Z,3.80
2023-02-08T12:30:16.733Z,3.70
2023-02-08T12:31:14.774Z,4.10
2023-02-08T12:32:20.123Z,4.10
2023-02-08T12:33:17.052Z,4.00
2023-02-08T12:34:14.595Z,3.80
2023-02-08T12:35:14.567Z,4.50
2023-02-08T12:36:14.576Z,3.70
2023-02-08T12:37:14.563Z,4.40
2023-02-08T12:38:14.596Z,4.30
2023-02-08T12:39:19.657Z,4.40
2023-02-08T12:40:14.638Z,3.80
2023-02-08T12:41:14.597Z,3.80
2023-02-08T12:42:14.518Z,4.20
2023-02-08T12:43:36.734Z,3.50
2023-02-08T12:44:14.450Z,3.60
2023-02-08T12:45:16.582Z,4.10
2023-02-08T12:46:35.636Z,3.90
2023-02-08T12:47:14.450Z,3.70
2023-02-08T12:48:14.428Z,4.10
2023-02-08T12:49:14.381Z,4.60
2023-02-08T12:50:14.372Z,4.00
2023-02-08T12:51:14.379Z,3.90
2023-02-08T12:52:14.492Z,3.70
2023-02-08T12:53:14.341Z,4.10
2023-02-08T13:32:56.774Z,3.50
2023-02-08T13:34:02.221Z,3.50
2023-02-08T13:34:57.736Z,4.10
2023-02-08T13:35:57.757Z,4.30
2023-02-08T13:36:57.701Z,3.70
2023-02-08T13:37:57.731Z,3.80
2023-02-08T13:38:57.690Z,3.60
2023-02-08T13:39:57.670Z,4.20
2023-02-08T13:41:20.811Z,3.80
2023-02-08T13:41:57.640Z,3.60
2023-02-08T13:42:57.641Z,3.50
2023-02-08T13:43:57.634Z,4.20
2023-02-08T13:47:26.837Z,3.00
2023-02-08T13:48:27.622Z,3.20
2023-02-08T13:49:27.584Z,3.70
2023-02-08T13:50:29.186Z,3.90
2023-02-08T13:51:27.568Z,3.20
2023-02-08T13:52:35.949Z,3.00
2023-02-08T13:53:27.558Z,3.20
2023-02-08T13:55:41.976Z,3.10
2023-02-08T13:56:42.414Z,3.40
2023-02-08T13:57:42.655Z,3.40
2023-02-08T13:58:42.338Z,3.40
2023-02-08T13:59:42.443Z,3.50
2023-02-08T14:00:42.705Z,3.90
2023-02-08T14:01:42.382Z,3.20
2023-02-08T14:02:42.293Z,3.30
2023-02-08T14:03:42.324Z,2.90
2023-02-08T14:04:42.275Z,3.30
2023-02-08T14:05:42.602Z,3.40
2023-02-08T14:06:42.247Z,3.50
2023-02-08T14:07:42.230Z,3.70
2023-02-08T14:08:47.859Z,3.10
2023-02-08T14:09:42.202Z,3.50
2023-02-08T14:10:42.597Z,3.10
2023-02-08T14:11:42.168Z,3.90
2023-02-08T14:12:42.150Z,3.40
2023-02-08T14:13:42.141Z,3.60
2023-02-08T14:14:42.121Z,3.60
2023-02-08T14:15:42.577Z,3.40
2023-02-08T14:16:42.107Z,3.30
2023-02-08T14:17:42.099Z,3.50
2023-02-08T14:18:42.085Z,3.50
2023-02-08T14:19:42.070Z,4.20
2023-02-08T14:20:42.055Z,3.10
2023-02-08T14:21:42.035Z,3.30
2023-02-08T14:22:42.015Z,3.20
2023-02-08T14:23:42.018Z,3.70
2023-02-08T14:24:42.002Z,3.70
2023-02-08T14:25:42.247Z,3.80
2023-02-08T14:26:41.954Z,3.90
2023-02-08T14:27:41.962Z,4.40
2023-02-08T14:28:41.992Z,4.00
2023-02-08T14:29:41.923Z,4.10
2023-02-08T14:30:42.207Z,4.80
2023-02-08T14:31:41.966Z,4.20
2023-02-08T14:32:41.889Z,3.90
2023-02-08T14:33:41.875Z,4.20
2023-02-08T14:34:41.854Z,3.80
2023-02-08T14:35:42.230Z,4.00
2023-02-08T14:36:41.878Z,3.90
2023-02-08T14:37:41.818Z,4.30
2023-02-08T14:38:41.850Z,4.20
2023-02-08T14:39:41.821Z,4.40
2023-02-08T14:40:41.982Z,4.30
2023-02-08T14:41:41.752Z,4.40
2023-02-08T14:42:41.776Z,3.60
2023-02-08T14:43:41.801Z,3.90
2023-02-08T14:44:41.779Z,3.80
2023-02-08T17:48:48.245Z,9.00
2023-02-08T17:49:45.551Z,9.70
2023-02-08T17:50:45.889Z,9.50
2023-02-08T17:51:45.516Z,9.90
2023-02-08T17:52:45.496Z,9.60
2023-02-08T17:53:45.521Z,9.30
2023-02-08T17:54:45.474Z,9.70
2023-02-08T17:55:45.861Z,9.40
2023-02-08T17:56:45.451Z,8.80
2023-02-08T17:57:45.650Z,9.50
2023-02-08T17:58:45.422Z,9.70
2023-02-08T17:59:45.435Z,9.70
2023-02-08T18:00:45.426Z,10.00
2023-02-08T18:01:45.834Z,10.40
2023-02-08T18:02:45.416Z,9.60
2023-02-08T18:03:45.366Z,8.90
2023-02-08T18:04:45.348Z,9.70
2023-02-08T18:05:45.338Z,10.10
2023-02-08T18:06:45.311Z,10.90
2023-02-08T18:07:45.289Z,10.60
2023-02-08T18:08:45.304Z,10.80
2023-02-08T18:10:07.518Z,10.30
2023-02-08T18:10:45.462Z,10.70
2023-02-08T18:11:45.278Z,10.70
2023-02-08T18:12:45.358Z,10.60
2023-02-08T18:13:45.236Z,10.40
2023-02-08T18:14:45.265Z,11.30
2023-02-08T18:15:45.648Z,11.30
2023-02-08T18:16:45.245Z,11.10
2023-02-08T18:17:45.172Z,10.40
2023-02-08T18:18:45.145Z,11.30
2023-02-08T18:19:45.139Z,10.70
2023-02-08T18:20:45.150Z,10.30
2023-02-08T18:21:45.170Z,11.20
2023-02-08T18:22:45.113Z,11.50
2023-02-08T18:23:45.109Z,11.60
2023-02-08T18:24:46.071Z,11.60
2023-02-08T18:25:45.497Z,15.50
2023-02-08T18:26:47.251Z,12.50
2023-02-08T18:27:45.045Z,11.30
2023-02-08T18:28:45.086Z,12.30
2023-02-08T18:29:46.064Z,12.30
2023-02-08T18:30:45.052Z,13.50
2023-02-08T18:31:45.079Z,13.90
2023-02-08T18:32:45.000Z,13.30
2023-02-08T18:33:44.961Z,12.00
2023-02-08T18:34:44.953Z,12.20
2023-02-08T18:36:05.956Z,12.30
2023-02-08T18:36:44.920Z,12.40
2023-02-08T18:37:44.933Z,11.80
2023-02-08T18:38:44.934Z,12.00
2023-02-08T18:39:44.866Z,12.60
2023-02-08T18:40:44.849Z,13.00
2023-02-08T18:41:44.870Z,13.50
2023-02-08T18:42:44.837Z,13.50
2023-02-08T18:43:44.997Z,13.50
2023-02-08T18:44:44.870Z,14.20
2023-02-08T18:46:07.018Z,14.60
2023-02-08T18:46:44.806Z,14.00
2023-02-08T18:47:44.762Z,13.10
2023-02-08T18:48:44.865Z,14.70
2023-02-08T18:49:44.740Z,15.00
2023-02-08T18:50:44.731Z,15.40
2023-02-08T18:51:44.709Z,15.40
2023-02-08T18:52:44.717Z,15.40
2023-02-08T18:53:44.720Z,15.50
2023-02-08T18:54:44.689Z,16.00
2023-02-08T18:55:44.942Z,15.70
2023-02-08T18:57:06.852Z,15.70
2023-02-08T18:57:44.623Z,15.20
2023-02-08T18:58:44.597Z,15.20
2023-02-08T18:59:44.609Z,16.60
2023-02-08T19:04:25.352Z,15.30
2023-02-08T19:05:24.616Z,15.00
2023-02-08T19:06:24.940Z,14.60
2023-02-08T19:07:24.604Z,15.00
2023-02-08T19:08:24.561Z,15.10
2023-02-08T19:09:24.645Z,15.90
2023-02-08T19:10:24.535Z,15.90
2023-02-08T19:11:24.533Z,15.80
2023-02-08T19:12:24.522Z,15.70
2023-02-08T19:13:24.502Z,16.50
2023-02-08T19:14:24.484Z,15.50
2023-02-08T19:15:24.498Z,16.30
2023-02-08T19:16:24.624Z,16.80
2023-02-08T19:17:24.486Z,16.40
2023-02-08T19:18:24.434Z,16.10
2023-02-08T19:19:24.437Z,16.70
2023-02-08T19:20:24.405Z,16.50
2023-02-08T19:21:24.411Z,16.50
2023-02-08T19:22:24.402Z,16.50
2023-02-08T19:23:24.418Z,16.30